createdAt,value
2023-08-23T00:03:19.459Z,96682.41
2023-08-23T00:08:23.702Z,96681.91
2023-08-23T00:13:27.941Z,96669.81
2023-08-23T00:18:30.848Z,96667.38
2023-08-23T00:23:33.753Z,96666.59
2023-08-23T00:28:37.981Z,96672.09
2023-08-23T00:33:40.895Z,96669.66
2023-08-23T00:38:43.813Z,96662.22
2023-08-23T00:43:49.343Z,96660.59
2023-08-23T00:48:52.349Z,96661.72
2023-08-23T00:53:55.223Z,96662.56
2023-08-23T00:59:00.105Z,96658.50
2023-08-23T01:04:03.039Z,96665.91
2023-08-23T01:09:15.213Z,96672.22
2023-08-23T01:14:25.193Z,96671.41
2023-08-23T01:19:39.857Z,96671.72
2023-08-23T01:24:44.295Z,96670.13
2023-08-23T01:29:47.390Z,96671.25
2023-08-23T01:34:53.883Z,96669.94
2023-08-23T01:40:01.644Z,96663.31
2023-08-23T01:45:05.402Z,96669.16
2023-08-23T01:50:09.080Z,96672.38
2023-08-23T01:55:13.279Z,96674.66
2023-08-23T02:00:16.615Z,96669.78
2023-08-23T02:05:19.542Z,96672.22
2023-08-23T02:10:26.517Z,96668.97
2023-08-23T02:15:29.643Z,96678.16
2023-08-23T02:20:32.631Z,96676.88
2023-08-23T02:25:36.912Z,96670.59
2023-08-23T02:30:40.139Z,96670.59
2023-08-23T02:35:45.361Z,96675.25
2023-08-23T02:40:49.551Z,96670.06
2023-08-23T02:45:52.484Z,96670.91
2023-08-23T02:50:55.357Z,96674.25
2023-08-23T02:55:59.535Z,96675.41
2023-08-23T03:01:04.110Z,96674.78
2023-08-23T03:06:09.545Z,96675.09
2023-08-23T03:11:13.877Z,96680.56
2023-08-23T03:16:16.767Z,96685.88
2023-08-23T03:21:19.707Z,96678.75
2023-08-23T03:26:23.936Z,96672.75
2023-08-23T03:31:29.372Z,96666.97
2023-08-23T03:36:32.984Z,96676.03
2023-08-23T03:41:37.269Z,96678.25
2023-08-23T03:46:40.618Z,96672.75
2023-08-23T03:51:43.484Z,96680.81
2023-08-23T03:56:47.689Z,96679.69
2023-08-23T04:01:50.614Z,96681.97
2023-08-23T04:06:53.489Z,96686.63
2023-08-23T04:11:57.694Z,96691.31
2023-08-23T04:17:01.548Z,96696.28
2023-08-23T04:22:04.580Z,96702.91
2023-08-23T04:27:08.785Z,96700.47
2023-08-23T04:32:14.071Z,96707.59
2023-08-23T04:37:17.146Z,96698.06
2023-08-23T04:42:21.382Z,96709.34
2023-08-23T04:47:24.586Z,96714.00
2023-08-23T04:52:27.543Z,96720.31
2023-08-23T04:57:34.490Z,96719.00
2023-08-23T05:02:37.376Z,96718.53
2023-08-23T05:07:40.245Z,96721.56
2023-08-23T05:12:44.437Z,96728.97
2023-08-23T05:17:47.467Z,96717.53
2023-08-23T05:22:50.558Z,96728.81
2023-08-23T05:27:54.763Z,96726.38
2023-08-23T05:32:57.923Z,96729.13
2023-08-23T05:38:00.911Z,96726.72
2023-08-23T05:43:05.425Z,96732.19
2023-08-23T05:48:08.744Z,96726.19
2023-08-23T05:53:15.751Z,96737.50
2023-08-23T05:58:20.481Z,96734.75
2023-08-23T06:03:23.417Z,96737.50
2023-08-23T06:08:27.391Z,96736.69
2023-08-23T06:13:32.082Z,96743.00
2023-08-23T06:18:34.988Z,96747.16
2023-08-23T06:23:42.899Z,96756.47
2023-08-23T06:28:47.216Z,96751.34
2023-08-23T06:33:50.196Z,96755.69
2023-08-23T06:38:53.077Z,96754.88
2023-08-23T06:44:02.210Z,96758.75
2023-08-23T06:49:05.614Z,96749.69
2023-08-23T06:54:08.500Z,96759.06
2023-08-23T06:59:12.808Z,96755.50
2023-08-23T07:04:16.479Z,96753.56
2023-08-23T07:09:20.900Z,96753.91
2023-08-23T07:14:26.230Z,96751.16
2023-08-23T07:19:29.073Z,96753.91
2023-08-23T07:24:32.618Z,96751.47
2023-08-23T07:29:38.408Z,96756.66
2023-08-23T07:34:41.511Z,96757.75
2023-08-23T07:39:44.352Z,96759.88
2023-08-23T07:44:48.558Z,96759.38
2023-08-23T07:49:52.868Z,96767.59
2023-08-23T07:54:55.808Z,96773.88
2023-08-23T08:00:01.137Z,96771.97
2023-08-23T08:05:04.595Z,96773.09
2023-08-23T08:10:08.371Z,96768.41
2023-08-23T08:15:12.997Z,96775.00
2023-08-23T08:20:16.017Z,96776.63
2023-08-23T08:25:19.021Z,96769.22
2023-08-23T08:30:23.286Z,96761.00
2023-08-23T08:35:26.328Z,96763.75
2023-08-23T08:40:29.291Z,96760.19
2023-08-23T08:45:33.735Z,96764.22
2023-08-23T08:50:36.715Z,96757.13
2023-08-23T08:55:39.754Z,96752.44
2023-08-23T09:00:46.413Z,96747.78
2023-08-23T09:05:50.308Z,96752.44
2023-08-23T09:10:53.221Z,96745.84
2023-08-23T09:16:00.040Z,96755.69
2023-08-23T09:21:03.175Z,96754.56
2023-08-23T09:26:07.454Z,96755.38
2023-08-23T09:31:12.722Z,96752.66
2023-08-23T09:36:26.691Z,96753.13
2023-08-23T09:41:29.684Z,96739.44
2023-08-23T09:46:36.240Z,96745.22
2023-08-23T09:51:53.166Z,96735.56
2023-08-23T09:56:56.593Z,96731.19
2023-08-23T10:02:02.106Z,96715.25
2023-08-23T10:07:06.496Z,96714.44
2023-08-23T10:12:10.975Z,96703.47
2023-08-23T10:17:17.499Z,96700.41
2023-08-23T10:22:20.857Z,96696.56
2023-08-23T10:27:25.643Z,96695.75
2023-08-23T10:32:36.299Z,96686.06
2023-08-23T10:37:39.232Z,96680.59
2023-08-23T10:42:42.602Z,96682.22
2023-08-23T10:47:52.749Z,96675.59
2023-08-23T10:52:55.851Z,96671.75
2023-08-23T10:57:58.800Z,96658.84
2023-08-23T11:03:03.869Z,96653.34
2023-08-23T11:08:07.910Z,96651.44
2023-08-23T11:13:10.841Z,96649.47
2023-08-23T11:18:15.496Z,96637.72
2023-08-23T11:23:18.469Z,96636.91
2023-08-23T11:28:22.196Z,96629.16
2023-08-23T11:33:26.850Z,96628.06
2023-08-23T11:38:30.037Z,96632.41
2023-08-23T11:43:32.975Z,96625.81
2023-08-23T11:48:37.172Z,96614.00
2023-08-23T11:53:50.315Z,96613.69
2023-08-23T11:58:53.225Z,96611.47
2023-08-23T12:03:57.852Z,96601.59
2023-08-23T12:09:01.129Z,96598.88
2023-08-23T12:14:08.041Z,96592.28
2023-08-23T12:19:29.638Z,96589.19
2023-08-23T12:24:34.585Z,96590.00
2023-08-23T12:29:39.108Z,96579.84
2023-08-23T12:34:43.360Z,96585.81
2023-08-23T12:39:46.284Z,96580.34
2023-08-23T12:44:49.184Z,96574.88
2023-08-23T12:49:53.398Z,96575.34
2023-08-23T12:54:56.383Z,96562.44
2023-08-23T12:59:59.419Z,96560.50
2023-08-23T13:05:04.139Z,96553.09
2023-08-23T13:10:08.368Z,96553.91
2023-08-23T13:15:12.005Z,96538.25
2023-08-23T13:20:16.408Z,96532.44
2023-08-23T13:25:19.322Z,96522.28
2023-08-23T13:30:22.267Z,96521.94
2023-08-23T13:35:26.627Z,96509.84
2023-08-23T13:40:29.555Z,96512.59
2023-08-23T13:45:32.429Z,96518.63
2023-08-23T13:50:36.631Z,96502.94
2023-08-23T13:55:39.517Z,96496.00
2023-08-23T14:00:42.388Z,96487.00
2023-08-23T14:05:47.174Z,96487.47
2023-08-23T14:10:50.023Z,96488.28
2023-08-23T14:15:54.561Z,96488.28
2023-08-23T14:20:58.774Z,96480.53
2023-08-23T14:26:04.921Z,96472.00
2023-08-23T14:31:08.206Z,96470.84
2023-08-23T14:36:12.473Z,96465.84
2023-08-23T14:41:15.424Z,96458.91
2023-08-23T14:46:18.312Z,96458.59
2023-08-23T14:51:23.727Z,96457.13
2023-08-23T14:56:26.681Z,96465.03
2023-08-23T15:01:29.653Z,96461.63
2023-08-23T15:06:33.888Z,96463.25
2023-08-23T15:11:36.721Z,96464.22
2023-08-23T15:16:39.645Z,96462.75
2023-08-23T15:21:43.850Z,96462.75
2023-08-23T15:26:46.754Z,96457.41
2023-08-23T15:31:49.718Z,96452.75
2023-08-23T15:36:53.976Z,96455.66
2023-08-23T15:41:58.274Z,96452.59
2023-08-23T15:47:03.047Z,96459.34
2023-08-23T15:52:08.533Z,96460.97
2023-08-23T15:57:11.482Z,96456.25
2023-08-23T16:02:14.446Z,96456.41
2023-08-23T16:07:19.679Z,96461.59
2023-08-23T16:12:22.557Z,96464.31
2023-08-23T16:17:25.426Z,96463.19
2023-08-23T16:22:29.943Z,96458.97
2023-08-23T16:27:32.824Z,96455.91
2023-08-23T16:32:35.893Z,96459.47
2023-08-23T16:37:42.325Z,96447.38
2023-08-23T16:42:45.250Z,96453.34
2023-08-23T16:47:48.613Z,96454.16
2023-08-23T16:52:52.803Z,96453.84
2023-08-23T16:57:55.991Z,96454.31
2023-08-23T17:02:58.874Z,96443.03
2023-08-23T17:08:04.214Z,96452.03
2023-08-23T17:13:07.179Z,96443.94
2023-08-23T17:18:10.560Z,96441.69
2023-08-23T17:23:18.190Z,96443.31
2023-08-23T17:28:21.242Z,96443.31
2023-08-23T17:33:24.140Z,96444.91
2023-08-23T17:38:28.388Z,96448.47
2023-08-23T17:43:31.240Z,96456.72
2023-08-23T17:48:34.164Z,96460.75
2023-08-23T17:53:38.396Z,96463.81
2023-08-23T17:58:41.254Z,96463.50
2023-08-23T18:03:44.525Z,96459.94
2023-08-23T18:08:48.825Z,96460.25
2023-08-23T18:13:52.430Z,96462.66
2023-08-23T18:18:55.457Z,96461.84
2023-08-23T18:23:59.931Z,96451.69
2023-08-23T18:29:02.908Z,96461.53
2023-08-23T18:34:05.789Z,96459.94
2023-08-23T18:39:10.037Z,96469.31
2023-08-23T18:44:12.954Z,96473.19
2023-08-23T18:49:16.008Z,96476.72
2023-08-23T18:54:20.225Z,96469.31
2023-08-23T18:59:23.444Z,96477.84
2023-08-23T19:04:26.279Z,96486.91
2023-08-23T19:09:30.558Z,96478.69
2023-08-23T19:14:34.013Z,96493.50
2023-08-23T19:19:36.854Z,96498.22
2023-08-23T19:24:41.068Z,96508.88
2023-08-23T19:29:44.074Z,96524.53
2023-08-23T19:34:47.029Z,96534.38
2023-08-23T19:39:51.427Z,96534.38
2023-08-23T19:44:54.271Z,96547.63
2023-08-23T19:49:59.823Z,96556.66
2023-08-23T19:55:04.102Z,96558.28
2023-08-23T20:00:08.310Z,96574.75
2023-08-23T20:05:13.634Z,96577.81
2023-08-23T20:10:19.317Z,96581.34
2023-08-23T20:15:22.314Z,96581.69
2023-08-23T20:20:25.148Z,96581.69
2023-08-23T20:25:29.991Z,96587.19
2023-08-23T20:30:32.894Z,96585.22
2023-08-23T20:35:36.239Z,96582.84
2023-08-23T20:40:40.968Z,96571.03
2023-08-23T20:45:44.318Z,96579.28
2023-08-23T20:50:47.194Z,96587.19
2023-08-23T20:55:52.358Z,96591.06
2023-08-23T21:00:57.807Z,96599.31
2023-08-23T21:06:00.810Z,96583.94
2023-08-23T21:11:05.045Z,96585.59
2023-08-23T21:16:08.957Z,96588.34
2023-08-23T21:21:11.927Z,96595.75
2023-08-23T21:26:16.146Z,96593.81
2023-08-23T21:31:19.622Z,96596.88
2023-08-23T21:36:22.760Z,96586.69
2023-08-23T21:41:27.040Z,96590.56
2023-08-23T21:46:31.437Z,96581.56
2023-08-23T21:51:34.312Z,96578.81
2023-08-23T21:56:41.132Z,96574.91
2023-08-23T22:01:44.241Z,96575.25
2023-08-23T22:06:48.257Z,96573.31
2023-08-23T22:11:53.120Z,96576.06
2023-08-23T22:16:56.172Z,96571.69
2023-08-23T22:21:59.215Z,96583.16
2023-08-23T22:27:03.459Z,96582.66
2023-08-23T22:32:06.681Z,96586.06
2023-08-23T22:37:09.560Z,96583.00
2023-08-23T22:42:13.834Z,96583.00
2023-08-23T22:47:16.754Z,96569.59
2023-08-23T22:52:19.878Z,96569.91
2023-08-23T22:57:24.289Z,96568.00
2023-08-23T23:02:27.423Z,96568.78
2023-08-23T23:07:30.934Z,96566.84
2023-08-23T23:12:36.036Z,96559.75
2023-08-23T23:17:40.615Z,96562.50
2023-08-23T23:22:43.628Z,96556.19
2023-08-23T23:27:48.074Z,96558.16
2023-08-23T23:32:51.359Z,96562.81
2023-08-23T23:37:54.352Z,96560.91
2023-08-23T23:42:58.558Z,96560.91
2023-08-23T23:48:02.367Z,96568.63
2023-08-23T23:53:05.461Z,96565.06
2023-08-23T23:58:09.668Z,96569.44
